sensor_id;sensor_type;location;lat;lon;timestamp;P1;durP1;ratioP1;P2;durP2;ratioP2
6420;SDS011;3243;50.958;7.012;2023-10-13T00:00:27;10.17;;;7.93;;
6420;SDS011;3243;50.958;7.012;2023-10-13T00:03:03;10.63;;;7.87;;
6420;SDS011;3243;50.958;7.012;2023-10-13T00:05:32;12.03;;;7.90;;
6420;SDS011;3243;50.958;7.012;2023-10-13T00:08:00;9.27;;;7.17;;
6420;SDS011;3243;50.958;7.012;2023-10-13T00:10:31;11.27;;;7.87;;
6420;SDS011;3243;50.958;7.012;2023-10-13T00:13:00;9.87;;;7.80;;
6420;SDS011;3243;50.958;7.012;2023-10-13T00:15:40;11.07;;;7.67;;
6420;SDS011;3243;50.958;7.012;2023-10-13T00:18:12;13.60;;;8.23;;
6420;SDS011;3243;50.958;7.012;2023-10-13T00:20:40;12.43;;;9.00;;
6420;SDS011;3243;50.958;7.012;2023-10-13T00:23:14;11.33;;;8.60;;
6420;SDS011;3243;50.958;7.012;2023-10-13T00:25:47;11.60;;;8.30;;
6420;SDS011;3243;50.958;7.012;2023-10-13T00:28:26;9.63;;;8.07;;
6420;SDS011;3243;50.958;7.012;2023-10-13T00:31:02;15.17;;;9.57;;
6420;SDS011;3243;50.958;7.012;2023-10-13T00:33:38;12.17;;;8.27;;
6420;SDS011;3243;50.958;7.012;2023-10-13T00:36:07;10.70;;;8.60;;
6420;SDS011;3243;50.958;7.012;2023-10-13T00:38:36;10.73;;;7.60;;
6420;SDS011;3243;50.958;7.012;2023-10-13T00:41:03;12.73;;;7.93;;
6420;SDS011;3243;50.958;7.012;2023-10-13T00:43:45;9.73;;;8.37;;
6420;SDS011;3243;50.958;7.012;2023-10-13T00:46:33;10.43;;;7.87;;
6420;SDS011;3243;50.958;7.012;2023-10-13T00:49:02;12.17;;;8.17;;
6420;SDS011;3243;50.958;7.012;2023-10-13T00:51:34;10.47;;;8.67;;
6420;SDS011;3243;50.958;7.012;2023-10-13T00:54:02;12.47;;;7.50;;
6420;SDS011;3243;50.958;7.012;2023-10-13T00:56:40;12.37;;;9.77;;
6420;SDS011;3243;50.958;7.012;2023-10-13T00:59:24;12.63;;;8.80;;
6420;SDS011;3243;50.958;7.012;2023-10-13T01:01:51;10.30;;;7.93;;
6420;SDS011;3243;50.958;7.012;2023-10-13T01:04:22;11.80;;;9.00;;
6420;SDS011;3243;50.958;7.012;2023-10-13T01:06:53;10.20;;;9.07;;
6420;SDS011;3243;50.958;7.012;2023-10-13T01:09:21;12.13;;;9.50;;
6420;SDS011;3243;50.958;7.012;2023-10-13T01:11:51;12.77;;;9.37;;
6420;SDS011;3243;50.958;7.012;2023-10-13T01:14:19;13.93;;;9.60;;
6420;SDS011;3243;50.958;7.012;2023-10-13T01:16:47;14.20;;;8.93;;
6420;SDS011;3243;50.958;7.012;2023-10-13T01:19:19;14.93;;;8.90;;
6420;SDS011;3243;50.958;7.012;2023-10-13T01:21:51;14.20;;;8.97;;
6420;SDS011;3243;50.958;7.012;2023-10-13T01:24:23;14.70;;;9.13;;
6420;SDS011;3243;50.958;7.012;2023-10-13T01:26:52;14.20;;;9.93;;
6420;SDS011;3243;50.958;7.012;2023-10-13T01:29:19;15.40;;;10.47;;
6420;SDS011;3243;50.958;7.012;2023-10-13T01:31:52;13.70;;;8.50;;
6420;SDS011;3243;50.958;7.012;2023-10-13T01:34:19;14.30;;;10.20;;
6420;SDS011;3243;50.958;7.012;2023-10-13T01:36:49;13.63;;;8.67;;
6420;SDS011;3243;50.958;7.012;2023-10-13T01:39:23;14.07;;;9.37;;
6420;SDS011;3243;50.958;7.012;2023-10-13T01:41:55;11.87;;;8.43;;
6420;SDS011;3243;50.958;7.012;2023-10-13T01:44:23;13.60;;;9.77;;
6420;SDS011;3243;50.958;7.012;2023-10-13T01:46:52;12.95;;;9.38;;
6420;SDS011;3243;50.958;7.012;2023-10-13T01:49:19;11.93;;;8.13;;
6420;SDS011;3243;50.958;7.012;2023-10-13T01:51:49;10.23;;;8.40;;
6420;SDS011;3243;50.958;7.012;2023-10-13T01:54:16;12.10;;;9.10;;
6420;SDS011;3243;50.958;7.012;2023-10-13T01:56:42;11.50;;;8.43;;
6420;SDS011;3243;50.958;7.012;2023-10-13T01:59:10;11.00;;;8.40;;
6420;SDS011;3243;50.958;7.012;2023-10-13T02:01:38;12.70;;;8.80;;
6420;SDS011;3243;50.958;7.012;2023-10-13T02:04:07;13.77;;;9.80;;
6420;SDS011;3243;50.958;7.012;2023-10-13T02:06:37;13.00;;;9.37;;
6420;SDS011;3243;50.958;7.012;2023-10-13T02:11:52;13.53;;;10.87;;
6420;SDS011;3243;50.958;7.012;2023-10-13T02:14:23;14.17;;;9.33;;
6420;SDS011;3243;50.958;7.012;2023-10-13T02:16:52;15.27;;;9.87;;
6420;SDS011;3243;50.958;7.012;2023-10-13T02:19:23;13.80;;;9.87;;
6420;SDS011;3243;50.958;7.012;2023-10-13T02:21:53;18.77;;;10.97;;
6420;SDS011;3243;50.958;7.012;2023-10-13T02:24:25;19.97;;;10.83;;
6420;SDS011;3243;50.958;7.012;2023-10-13T02:26:56;14.13;;;10.03;;
6420;SDS011;3243;50.958;7.012;2023-10-13T02:29:29;13.23;;;8.50;;
6420;SDS011;3243;50.958;7.012;2023-10-13T02:31:56;15.03;;;8.90;;
6420;SDS011;3243;50.958;7.012;2023-10-13T02:34:24;14.50;;;10.27;;
6420;SDS011;3243;50.958;7.012;2023-10-13T02:36:51;18.10;;;11.27;;
6420;SDS011;3243;50.958;7.012;2023-10-13T02:39:20;13.43;;;8.87;;
6420;SDS011;3243;50.958;7.012;2023-10-13T02:41:51;15.53;;;10.17;;
6420;SDS011;3243;50.958;7.012;2023-10-13T02:44:19;18.43;;;11.43;;
6420;SDS011;3243;50.958;7.012;2023-10-13T02:46:57;16.77;;;11.77;;
6420;SDS011;3243;50.958;7.012;2023-10-13T02:49:26;17.07;;;9.93;;
6420;SDS011;3243;50.958;7.012;2023-10-13T02:51:53;17.57;;;11.67;;
6420;SDS011;3243;50.958;7.012;2023-10-13T02:54:22;17.10;;;11.77;;
6420;SDS011;3243;50.958;7.012;2023-10-13T02:56:56;13.77;;;9.20;;
6420;SDS011;3243;50.958;7.012;2023-10-13T02:59:24;16.83;;;11.50;;
6420;SDS011;3243;50.958;7.012;2023-10-13T03:02:07;13.27;;;10.03;;
6420;SDS011;3243;50.958;7.012;2023-10-13T03:04:54;13.20;;;9.77;;
6420;SDS011;3243;50.958;7.012;2023-10-13T03:07:26;16.80;;;11.63;;
6420;SDS011;3243;50.958;7.012;2023-10-13T03:09:56;14.03;;;10.53;;
6420;SDS011;3243;50.958;7.012;2023-10-13T03:12:26;14.70;;;9.27;;
6420;SDS011;3243;50.958;7.012;2023-10-13T03:15:00;13.73;;;10.53;;
6420;SDS011;3243;50.958;7.012;2023-10-13T03:17:39;15.10;;;9.97;;
6420;SDS011;3243;50.958;7.012;2023-10-13T03:20:10;15.93;;;10.80;;
6420;SDS011;3243;50.958;7.012;2023-10-13T03:22:39;13.90;;;10.53;;
6420;SDS011;3243;50.958;7.012;2023-10-13T03:25:07;17.40;;;11.37;;
6420;SDS011;3243;50.958;7.012;2023-10-13T03:27:43;19.93;;;11.03;;
6420;SDS011;3243;50.958;7.012;2023-10-13T03:30:16;18.67;;;12.17;;
6420;SDS011;3243;50.958;7.012;2023-10-13T03:32:43;19.97;;;12.77;;
6420;SDS011;3243;50.958;7.012;2023-10-13T03:35:12;21.03;;;12.50;;
6420;SDS011;3243;50.958;7.012;2023-10-13T03:37:43;19.83;;;12.07;;
6420;SDS011;3243;50.958;7.012;2023-10-13T03:40:11;17.87;;;12.43;;
6420;SDS011;3243;50.958;7.012;2023-10-13T03:42:52;15.53;;;9.90;;
6420;SDS011;3243;50.958;7.012;2023-10-13T03:45:26;15.97;;;11.43;;
6420;SDS011;3243;50.958;7.012;2023-10-13T03:47:55;18.63;;;12.67;;
6420;SDS011;3243;50.958;7.012;2023-10-13T03:50:22;17.77;;;10.80;;
6420;SDS011;3243;50.958;7.012;2023-10-13T03:52:56;17.80;;;11.40;;
6420;SDS011;3243;50.958;7.012;2023-10-13T03:55:26;20.03;;;12.07;;
6420;SDS011;3243;50.958;7.012;2023-10-13T03:57:53;17.93;;;11.03;;
6420;SDS011;3243;50.958;7.012;2023-10-13T04:00:20;18.97;;;12.63;;
6420;SDS011;3243;50.958;7.012;2023-10-13T04:02:50;13.93;;;10.50;;
6420;SDS011;3243;50.958;7.012;2023-10-13T04:05:31;15.93;;;10.10;;
6420;SDS011;3243;50.958;7.012;2023-10-13T04:08:08;17.73;;;11.77;;
6420;SDS011;3243;50.958;7.012;2023-10-13T04:10:56;15.37;;;11.57;;
6420;SDS011;3243;50.958;7.012;2023-10-13T04:13:23;17.30;;;11.77;;
6420;SDS011;3243;50.958;7.012;2023-10-13T04:16:07;17.23;;;11.40;;
6420;SDS011;3243;50.958;7.012;2023-10-13T04:18:49;16.70;;;11.13;;
6420;SDS011;3243;50.958;7.012;2023-10-13T04:21:25;15.90;;;11.90;;
6420;SDS011;3243;50.958;7.012;2023-10-13T04:26:49;17.23;;;11.53;;
6420;SDS011;3243;50.958;7.012;2023-10-13T04:29:46;17.80;;;10.87;;
6420;SDS011;3243;50.958;7.012;2023-10-13T04:32:16;15.90;;;11.63;;
6420;SDS011;3243;50.958;7.012;2023-10-13T04:34:57;14.60;;;11.23;;
6420;SDS011;3243;50.958;7.012;2023-10-13T04:37:35;15.20;;;10.30;;
6420;SDS011;3243;50.958;7.012;2023-10-13T04:40:17;13.30;;;10.80;;
6420;SDS011;3243;50.958;7.012;2023-10-13T04:42:46;12.93;;;10.70;;
6420;SDS011;3243;50.958;7.012;2023-10-13T04:45:16;16.40;;;12.10;;
6420;SDS011;3243;50.958;7.012;2023-10-13T04:47:59;15.43;;;12.37;;
6420;SDS011;3243;50.958;7.012;2023-10-13T04:50:41;17.27;;;11.83;;
6420;SDS011;3243;50.958;7.012;2023-10-13T04:53:14;14.13;;;10.83;;
6420;SDS011;3243;50.958;7.012;2023-10-13T04:55:56;15.17;;;11.70;;
6420;SDS011;3243;50.958;7.012;2023-10-13T04:58:29;14.53;;;10.80;;
6420;SDS011;3243;50.958;7.012;2023-10-13T05:01:00;15.97;;;11.93;;
6420;SDS011;3243;50.958;7.012;2023-10-13T05:03:46;14.37;;;10.77;;
6420;SDS011;3243;50.958;7.012;2023-10-13T05:06:32;13.53;;;10.07;;
6420;SDS011;3243;50.958;7.012;2023-10-13T05:09:14;16.37;;;10.53;;
6420;SDS011;3243;50.958;7.012;2023-10-13T05:11:59;15.27;;;10.60;;
6420;SDS011;3243;50.958;7.012;2023-10-13T05:14:45;16.53;;;10.30;;
6420;SDS011;3243;50.958;7.012;2023-10-13T05:17:30;15.10;;;10.30;;
6420;SDS011;3243;50.958;7.012;2023-10-13T05:20:16;20.00;;;11.40;;
6420;SDS011;3243;50.958;7.012;2023-10-13T05:23:02;16.00;;;9.67;;
6420;SDS011;3243;50.958;7.012;2023-10-13T05:25:48;15.60;;;8.63;;
6420;SDS011;3243;50.958;7.012;2023-10-13T05:28:33;16.87;;;11.57;;
6420;SDS011;3243;50.958;7.012;2023-10-13T05:31:19;17.20;;;11.37;;
6420;SDS011;3243;50.958;7.012;2023-10-13T05:34:05;22.00;;;11.73;;
6420;SDS011;3243;50.958;7.012;2023-10-13T05:36:50;13.43;;;9.57;;
6420;SDS011;3243;50.958;7.012;2023-10-13T05:39:36;19.63;;;10.20;;
6420;SDS011;3243;50.958;7.012;2023-10-13T05:42:22;17.30;;;10.07;;
6420;SDS011;3243;50.958;7.012;2023-10-13T05:45:08;10.67;;;9.57;;
6420;SDS011;3243;50.958;7.012;2023-10-13T05:47:44;16.30;;;10.73;;
6420;SDS011;3243;50.958;7.012;2023-10-13T05:50:11;17.70;;;10.80;;
6420;SDS011;3243;50.958;7.012;2023-10-13T05:52:54;12.77;;;9.20;;
6420;SDS011;3243;50.958;7.012;2023-10-13T05:55:25;15.27;;;9.60;;
6420;SDS011;3243;50.958;7.012;2023-10-13T05:58:15;14.40;;;9.40;;
6420;SDS011;3243;50.958;7.012;2023-10-13T06:01:01;19.03;;;10.97;;
6420;SDS011;3243;50.958;7.012;2023-10-13T06:03:47;15.73;;;9.07;;
6420;SDS011;3243;50.958;7.012;2023-10-13T06:06:33;14.07;;;9.43;;
6420;SDS011;3243;50.958;7.012;2023-10-13T06:09:19;15.47;;;10.43;;
6420;SDS011;3243;50.958;7.012;2023-10-13T06:12:05;13.63;;;9.60;;
6420;SDS011;3243;50.958;7.012;2023-10-13T06:14:51;16.83;;;9.67;;
6420;SDS011;3243;50.958;7.012;2023-10-13T06:17:50;16.53;;;9.07;;
6420;SDS011;3243;50.958;7.012;2023-10-13T06:20:40;18.63;;;10.10;;
6420;SDS011;3243;50.958;7.012;2023-10-13T06:23:25;14.80;;;8.67;;
6420;SDS011;3243;50.958;7.012;2023-10-13T06:26:11;15.90;;;9.67;;
6420;SDS011;3243;50.958;7.012;2023-10-13T06:28:57;12.13;;;8.87;;
6420;SDS011;3243;50.958;7.012;2023-10-13T06:31:24;12.73;;;8.27;;
6420;SDS011;3243;50.958;7.012;2023-10-13T06:33:52;14.00;;;9.13;;
6420;SDS011;3243;50.958;7.012;2023-10-13T06:36:22;15.73;;;9.47;;
6420;SDS011;3243;50.958;7.012;2023-10-13T06:38:48;15.47;;;9.00;;
6420;SDS011;3243;50.958;7.012;2023-10-13T06:41:22;11.30;;;7.83;;
6420;SDS011;3243;50.958;7.012;2023-10-13T06:43:57;13.83;;;7.70;;
6420;SDS011;3243;50.958;7.012;2023-10-13T06:46:27;14.30;;;7.90;;
6420;SDS011;3243;50.958;7.012;2023-10-13T06:48:55;12.03;;;7.77;;
6420;SDS011;3243;50.958;7.012;2023-10-13T06:51:26;13.47;;;7.83;;
6420;SDS011;3243;50.958;7.012;2023-10-13T06:53:57;10.83;;;7.50;;
6420;SDS011;3243;50.958;7.012;2023-10-13T06:56:24;14.07;;;7.90;;
6420;SDS011;3243;50.958;7.012;2023-10-13T06:58:55;13.75;;;8.25;;
6420;SDS011;3243;50.958;7.012;2023-10-13T07:01:26;13.63;;;7.07;;
6420;SDS011;3243;50.958;7.012;2023-10-13T07:03:54;12.67;;;8.07;;
6420;SDS011;3243;50.958;7.012;2023-10-13T07:06:27;14.23;;;8.27;;
6420;SDS011;3243;50.958;7.012;2023-10-13T07:08:57;11.10;;;6.93;;
6420;SDS011;3243;50.958;7.012;2023-10-13T07:11:28;13.70;;;7.20;;
6420;SDS011;3243;50.958;7.012;2023-10-13T07:14:09;13.13;;;6.63;;
6420;SDS011;3243;50.958;7.012;2023-10-13T07:16:42;14.90;;;6.27;;
6420;SDS011;3243;50.958;7.012;2023-10-13T07:19:13;13.53;;;6.97;;
6420;SDS011;3243;50.958;7.012;2023-10-13T07:21:46;13.52;;;7.72;;
6420;SDS011;3243;50.958;7.012;2023-10-13T07:24:13;12.83;;;6.93;;
6420;SDS011;3243;50.958;7.012;2023-10-13T07:26:42;12.70;;;6.90;;
6420;SDS011;3243;50.958;7.012;2023-10-13T07:29:11;12.90;;;7.07;;
6420;SDS011;3243;50.958;7.012;2023-10-13T07:31:40;16.97;;;7.10;;
6420;SDS011;3243;50.958;7.012;2023-10-13T07:34:12;49.78;;;11.35;;
6420;SDS011;3243;50.958;7.012;2023-10-13T07:36:54;29.98;;;8.50;;
6420;SDS011;3243;50.958;7.012;2023-10-13T07:39:30;17.27;;;6.88;;
6420;SDS011;3243;50.958;7.012;2023-10-13T07:42:01;15.18;;;6.38;;
6420;SDS011;3243;50.958;7.012;2023-10-13T07:44:32;18.10;;;6.82;;
6420;SDS011;3243;50.958;7.012;2023-10-13T07:47:00;15.32;;;6.72;;
6420;SDS011;3243;50.958;7.012;2023-10-13T07:49:32;14.05;;;6.28;;
6420;SDS011;3243;50.958;7.012;2023-10-13T07:52:05;13.82;;;6.30;;
6420;SDS011;3243;50.958;7.012;2023-10-13T07:54:50;19.87;;;6.80;;
6420;SDS011;3243;50.958;7.012;2023-10-13T07:57:38;19.70;;;6.95;;
6420;SDS011;3243;50.958;7.012;2023-10-13T08:00:22;10.70;;;6.00;;
6420;SDS011;3243;50.958;7.012;2023-10-13T08:03:08;9.60;;;5.10;;
6420;SDS011;3243;50.958;7.012;2023-10-13T08:05:44;17.85;;;6.78;;
6420;SDS011;3243;50.958;7.012;2023-10-13T08:08:47;17.27;;;5.93;;
6420;SDS011;3243;50.958;7.012;2023-10-13T08:11:20;14.20;;;6.07;;
6420;SDS011;3243;50.958;7.012;2023-10-13T08:13:50;17.77;;;6.00;;
6420;SDS011;3243;50.958;7.012;2023-10-13T08:16:35;13.32;;;6.05;;
6420;SDS011;3243;50.958;7.012;2023-10-13T08:19:16;16.58;;;6.38;;
6420;SDS011;3243;50.958;7.012;2023-10-13T08:22:09;13.95;;;5.70;;
6420;SDS011;3243;50.958;7.012;2023-10-13T08:24:46;11.57;;;5.50;;
6420;SDS011;3243;50.958;7.012;2023-10-13T08:27:14;12.40;;;4.72;;
6420;SDS011;3243;50.958;7.012;2023-10-13T08:30:02;15.38;;;5.65;;
6420;SDS011;3243;50.958;7.012;2023-10-13T08:32:53;13.35;;;5.28;;
6420;SDS011;3243;50.958;7.012;2023-10-13T08:35:24;12.45;;;4.88;;
6420;SDS011;3243;50.958;7.012;2023-10-13T08:38:01;10.73;;;5.22;;
6420;SDS011;3243;50.958;7.012;2023-10-13T08:40:57;12.23;;;5.35;;
6420;SDS011;3243;50.958;7.012;2023-10-13T08:43:43;11.57;;;5.07;;
6420;SDS011;3243;50.958;7.012;2023-10-13T08:46:17;13.35;;;5.40;;
6420;SDS011;3243;50.958;7.012;2023-10-13T08:48:58;10.70;;;5.32;;
6420;SDS011;3243;50.958;7.012;2023-10-13T08:51:41;13.32;;;5.20;;
6420;SDS011;3243;50.958;7.012;2023-10-13T08:54:16;12.45;;;5.30;;
6420;SDS011;3243;50.958;7.012;2023-10-13T08:57:05;16.30;;;5.55;;
6420;SDS011;3243;50.958;7.012;2023-10-13T08:59:46;16.13;;;4.97;;
6420;SDS011;3243;50.958;7.012;2023-10-13T09:02:20;15.70;;;5.22;;
6420;SDS011;3243;50.958;7.012;2023-10-13T09:05:09;11.63;;;4.88;;
6420;SDS011;3243;50.958;7.012;2023-10-13T09:07:55;13.35;;;5.53;;
6420;SDS011;3243;50.958;7.012;2023-10-13T09:10:29;12.35;;;5.35;;
6420;SDS011;3243;50.958;7.012;2023-10-13T09:13:15;12.88;;;5.55;;
6420;SDS011;3243;50.958;7.012;2023-10-13T09:15:47;12.70;;;5.57;;
6420;SDS011;3243;50.958;7.012;2023-10-13T09:18:27;13.52;;;5.57;;
6420;SDS011;3243;50.958;7.012;2023-10-13T09:21:14;11.60;;;5.18;;
6420;SDS011;3243;50.958;7.012;2023-10-13T09:24:14;14.52;;;5.70;;
6420;SDS011;3243;50.958;7.012;2023-10-13T09:26:58;15.02;;;5.55;;
6420;SDS011;3243;50.958;7.012;2023-10-13T09:29:28;10.23;;;5.32;;
6420;SDS011;3243;50.958;7.012;2023-10-13T09:31:59;12.75;;;5.47;;
6420;SDS011;3243;50.958;7.012;2023-10-13T09:34:29;9.13;;;5.32;;
6420;SDS011;3243;50.958;7.012;2023-10-13T09:36:59;13.65;;;6.13;;
6420;SDS011;3243;50.958;7.012;2023-10-13T09:39:29;10.77;;;5.40;;
6420;SDS011;3243;50.958;7.012;2023-10-13T09:41:57;10.63;;;6.25;;
6420;SDS011;3243;50.958;7.012;2023-10-13T09:44:23;11.02;;;5.60;;
6420;SDS011;3243;50.958;7.012;2023-10-13T09:46:58;12.15;;;5.60;;
6420;SDS011;3243;50.958;7.012;2023-10-13T09:49:37;8.98;;;5.75;;
6420;SDS011;3243;50.958;7.012;2023-10-13T09:52:18;10.43;;;6.13;;
6420;SDS011;3243;50.958;7.012;2023-10-13T09:54:50;12.77;;;6.13;;
6420;SDS011;3243;50.958;7.012;2023-10-13T09:57:32;9.88;;;5.55;;
6420;SDS011;3243;50.958;7.012;2023-10-13T10:02:55;11.10;;;6.07;;
6420;SDS011;3243;50.958;7.012;2023-10-13T10:05:42;10.98;;;5.70;;
6420;SDS011;3243;50.958;7.012;2023-10-13T10:08:24;11.50;;;5.70;;
6420;SDS011;3243;50.958;7.012;2023-10-13T10:13:39;11.30;;;7.43;;
6420;SDS011;3243;50.958;7.012;2023-10-13T10:16:22;10.02;;;7.13;;
6420;SDS011;3243;50.958;7.012;2023-10-13T10:19:03;10.50;;;6.68;;
6420;SDS011;3243;50.958;7.012;2023-10-13T10:21:36;14.60;;;6.43;;
6420;SDS011;3243;50.958;7.012;2023-10-13T10:24:16;12.30;;;6.57;;
6420;SDS011;3243;50.958;7.012;2023-10-13T10:26:56;14.15;;;7.47;;
6420;SDS011;3243;50.958;7.012;2023-10-13T10:29:23;12.80;;;8.38;;
6420;SDS011;3243;50.958;7.012;2023-10-13T10:31:50;10.38;;;6.35;;
6420;SDS011;3243;50.958;7.012;2023-10-13T10:34:18;10.10;;;6.22;;
6420;SDS011;3243;50.958;7.012;2023-10-13T10:36:46;11.90;;;6.43;;
6420;SDS011;3243;50.958;7.012;2023-10-13T10:39:14;12.70;;;5.80;;
6420;SDS011;3243;50.958;7.012;2023-10-13T10:41:41;10.52;;;6.25;;
6420;SDS011;3243;50.958;7.012;2023-10-13T10:44:18;11.75;;;5.57;;
6420;SDS011;3243;50.958;7.012;2023-10-13T10:47:13;12.18;;;6.35;;
6420;SDS011;3243;50.958;7.012;2023-10-13T10:49:46;11.95;;;6.13;;
6420;SDS011;3243;50.958;7.012;2023-10-13T10:52:16;9.10;;;5.45;;
6420;SDS011;3243;50.958;7.012;2023-10-13T10:54:47;11.55;;;6.57;;
6420;SDS011;3243;50.958;7.012;2023-10-13T10:57:24;9.57;;;6.30;;
6420;SDS011;3243;50.958;7.012;2023-10-13T10:59:59;12.88;;;6.38;;
6420;SDS011;3243;50.958;7.012;2023-10-13T11:02:38;11.25;;;6.50;;
6420;SDS011;3243;50.958;7.012;2023-10-13T11:05:05;12.23;;;6.57;;
6420;SDS011;3243;50.958;7.012;2023-10-13T11:07:36;12.85;;;6.00;;
6420;SDS011;3243;50.958;7.012;2023-10-13T11:10:09;14.73;;;7.20;;
6420;SDS011;3243;50.958;7.012;2023-10-13T11:12:54;12.25;;;6.35;;
6420;SDS011;3243;50.958;7.012;2023-10-13T11:15:42;15.35;;;6.20;;
6420;SDS011;3243;50.958;7.012;2023-10-13T11:18:13;15.40;;;6.28;;
6420;SDS011;3243;50.958;7.012;2023-10-13T11:20:47;9.93;;;5.80;;
6420;SDS011;3243;50.958;7.012;2023-10-13T11:23:20;11.90;;;6.07;;
6420;SDS011;3243;50.958;7.012;2023-10-13T11:25:58;10.00;;;5.65;;
6420;SDS011;3243;50.958;7.012;2023-10-13T11:28:25;9.40;;;5.70;;
6420;SDS011;3243;50.958;7.012;2023-10-13T11:30:58;12.55;;;7.50;;
6420;SDS011;3243;50.958;7.012;2023-10-13T11:33:26;10.93;;;6.07;;
6420;SDS011;3243;50.958;7.012;2023-10-13T11:35:55;12.63;;;5.63;;
6420;SDS011;3243;50.958;7.012;2023-10-13T11:38:33;13.40;;;5.93;;
6420;SDS011;3243;50.958;7.012;2023-10-13T11:41:20;14.38;;;6.22;;
6420;SDS011;3243;50.958;7.012;2023-10-13T11:43:52;14.65;;;7.68;;
6420;SDS011;3243;50.958;7.012;2023-10-13T11:46:31;14.27;;;6.78;;
6420;SDS011;3243;50.958;7.012;2023-10-13T11:51:40;10.65;;;5.72;;
6420;SDS011;3243;50.958;7.012;2023-10-13T11:54:15;14.50;;;5.55;;
6420;SDS011;3243;50.958;7.012;2023-10-13T11:56:44;9.20;;;5.03;;
6420;SDS011;3243;50.958;7.012;2023-10-13T11:59:11;14.30;;;5.70;;
6420;SDS011;3243;50.958;7.012;2023-10-13T12:01:48;12.20;;;5.43;;
6420;SDS011;3243;50.958;7.012;2023-10-13T12:04:34;10.40;;;5.13;;
6420;SDS011;3243;50.958;7.012;2023-10-13T12:07:21;12.13;;;5.60;;
6420;SDS011;3243;50.958;7.012;2023-10-13T12:10:06;10.15;;;5.85;;
6420;SDS011;3243;50.958;7.012;2023-10-13T12:12:41;11.75;;;5.63;;
6420;SDS011;3243;50.958;7.012;2023-10-13T12:15:12;12.13;;;6.07;;
6420;SDS011;3243;50.958;7.012;2023-10-13T12:18:00;11.57;;;5.53;;
6420;SDS011;3243;50.958;7.012;2023-10-13T12:20:29;13.35;;;5.70;;
6420;SDS011;3243;50.958;7.012;2023-10-13T12:23:01;12.38;;;5.63;;
6420;SDS011;3243;50.958;7.012;2023-10-13T12:25:42;16.15;;;5.65;;
6420;SDS011;3243;50.958;7.012;2023-10-13T12:28:23;14.63;;;6.15;;
6420;SDS011;3243;50.958;7.012;2023-10-13T12:30:54;16.88;;;5.90;;
6420;SDS011;3243;50.958;7.012;2023-10-13T12:33:24;11.70;;;5.20;;
6420;SDS011;3243;50.958;7.012;2023-10-13T12:38:31;12.70;;;5.63;;
6420;SDS011;3243;50.958;7.012;2023-10-13T12:41:14;11.43;;;5.57;;
6420;SDS011;3243;50.958;7.012;2023-10-13T12:44:02;13.95;;;5.03;;
6420;SDS011;3243;50.958;7.012;2023-10-13T12:46:49;11.95;;;5.25;;
6420;SDS011;3243;50.958;7.012;2023-10-13T12:49:35;10.82;;;4.97;;
6420;SDS011;3243;50.958;7.012;2023-10-13T12:52:09;11.00;;;4.80;;
6420;SDS011;3243;50.958;7.012;2023-10-13T12:55:02;14.23;;;5.28;;
6420;SDS011;3243;50.958;7.012;2023-10-13T12:57:33;12.45;;;4.90;;
6420;SDS011;3243;50.958;7.012;2023-10-13T13:00:00;14.38;;;6.30;;
6420;SDS011;3243;50.958;7.012;2023-10-13T13:02:42;13.65;;;5.32;;
6420;SDS011;3243;50.958;7.012;2023-10-13T13:05:09;14.23;;;5.03;;
6420;SDS011;3243;50.958;7.012;2023-10-13T13:07:39;13.90;;;4.93;;
6420;SDS011;3243;50.958;7.012;2023-10-13T13:10:10;12.07;;;5.10;;
6420;SDS011;3243;50.958;7.012;2023-10-13T13:12:40;9.02;;;4.95;;
6420;SDS011;3243;50.958;7.012;2023-10-13T13:15:08;14.32;;;5.28;;
6420;SDS011;3243;50.958;7.012;2023-10-13T13:17:35;11.02;;;4.95;;
6420;SDS011;3243;50.958;7.012;2023-10-13T13:20:03;12.30;;;5.30;;
6420;SDS011;3243;50.958;7.012;2023-10-13T13:22:37;14.00;;;5.13;;
6420;SDS011;3243;50.958;7.012;2023-10-13T13:25:05;12.77;;;5.10;;
6420;SDS011;3243;50.958;7.012;2023-10-13T13:27:37;15.95;;;5.30;;
6420;SDS011;3243;50.958;7.012;2023-10-13T13:30:08;20.80;;;4.75;;
6420;SDS011;3243;50.958;7.012;2023-10-13T13:32:39;13.90;;;5.18;;
6420;SDS011;3243;50.958;7.012;2023-10-13T13:35:07;14.63;;;5.38;;
6420;SDS011;3243;50.958;7.012;2023-10-13T13:37:40;17.17;;;6.07;;
6420;SDS011;3243;50.958;7.012;2023-10-13T13:40:09;15.88;;;5.53;;
6420;SDS011;3243;50.958;7.012;2023-10-13T13:42:48;14.77;;;6.03;;
6420;SDS011;3243;50.958;7.012;2023-10-13T13:45:15;8.60;;;4.82;;
6420;SDS011;3243;50.958;7.012;2023-10-13T13:47:53;15.95;;;5.22;;
6420;SDS011;3243;50.958;7.012;2023-10-13T13:50:25;13.10;;;5.18;;
6420;SDS011;3243;50.958;7.012;2023-10-13T13:52:56;10.73;;;5.15;;
6420;SDS011;3243;50.958;7.012;2023-10-13T13:55:24;13.85;;;6.00;;
6420;SDS011;3243;50.958;7.012;2023-10-13T13:57:55;16.63;;;6.22;;
6420;SDS011;3243;50.958;7.012;2023-10-13T14:00:22;12.30;;;5.35;;
6420;SDS011;3243;50.958;7.012;2023-10-13T14:03:06;15.48;;;5.68;;
6420;SDS011;3243;50.958;7.012;2023-10-13T14:05:42;11.07;;;5.13;;
6420;SDS011;3243;50.958;7.012;2023-10-13T14:08:09;13.27;;;5.40;;
6420;SDS011;3243;50.958;7.012;2023-10-13T14:10:41;10.75;;;5.22;;
6420;SDS011;3243;50.958;7.012;2023-10-13T14:13:27;15.80;;;4.90;;
6420;SDS011;3243;50.958;7.012;2023-10-13T14:16:12;12.40;;;5.10;;
6420;SDS011;3243;50.958;7.012;2023-10-13T14:18:46;15.65;;;5.68;;
6420;SDS011;3243;50.958;7.012;2023-10-13T14:21:14;12.55;;;4.95;;
6420;SDS011;3243;50.958;7.012;2023-10-13T14:23:45;11.73;;;5.18;;
6420;SDS011;3243;50.958;7.012;2023-10-13T14:26:16;12.48;;;5.50;;
6420;SDS011;3243;50.958;7.012;2023-10-13T14:28:48;14.93;;;5.15;;
6420;SDS011;3243;50.958;7.012;2023-10-13T14:31:29;10.98;;;4.72;;
6420;SDS011;3243;50.958;7.012;2023-10-13T14:33:56;11.70;;;5.18;;
6420;SDS011;3243;50.958;7.012;2023-10-13T14:36:24;14.80;;;5.38;;
6420;SDS011;3243;50.958;7.012;2023-10-13T14:38:57;16.75;;;5.50;;
6420;SDS011;3243;50.958;7.012;2023-10-13T14:41:24;8.43;;;4.43;;
6420;SDS011;3243;50.958;7.012;2023-10-13T14:43:51;12.68;;;5.25;;
6420;SDS011;3243;50.958;7.012;2023-10-13T14:46:19;14.55;;;5.60;;
6420;SDS011;3243;50.958;7.012;2023-10-13T14:48:52;13.73;;;5.82;;
6420;SDS011;3243;50.958;7.012;2023-10-13T14:51:19;13.30;;;5.20;;
6420;SDS011;3243;50.958;7.012;2023-10-13T14:53:47;14.52;;;4.90;;
6420;SDS011;3243;50.958;7.012;2023-10-13T14:56:16;11.50;;;5.28;;
6420;SDS011;3243;50.958;7.012;2023-10-13T14:58:44;12.95;;;5.47;;
6420;SDS011;3243;50.958;7.012;2023-10-13T15:03:37;10.57;;;5.10;;
6420;SDS011;3243;50.958;7.012;2023-10-13T15:06:04;14.93;;;5.13;;
6420;SDS011;3243;50.958;7.012;2023-10-13T15:08:31;13.90;;;5.28;;
6420;SDS011;3243;50.958;7.012;2023-10-13T15:11:07;15.57;;;5.10;;
6420;SDS011;3243;50.958;7.012;2023-10-13T15:13:39;9.50;;;4.53;;
6420;SDS011;3243;50.958;7.012;2023-10-13T15:19:03;12.20;;;4.55;;
6420;SDS011;3243;50.958;7.012;2023-10-13T15:21:30;12.88;;;5.18;;
6420;SDS011;3243;50.958;7.012;2023-10-13T15:24:01;10.27;;;5.32;;
6420;SDS011;3243;50.958;7.012;2023-10-13T15:26:51;9.50;;;4.72;;
6420;SDS011;3243;50.958;7.012;2023-10-13T15:29:23;14.35;;;4.60;;
6420;SDS011;3243;50.958;7.012;2023-10-13T15:31:56;15.57;;;5.10;;
6420;SDS011;3243;50.958;7.012;2023-10-13T15:34:26;9.63;;;4.85;;
6420;SDS011;3243;50.958;7.012;2023-10-13T15:36:55;9.57;;;5.28;;
6420;SDS011;3243;50.958;7.012;2023-10-13T15:39:23;11.75;;;4.90;;
6420;SDS011;3243;50.958;7.012;2023-10-13T15:41:51;9.20;;;4.45;;
6420;SDS011;3243;50.958;7.012;2023-10-13T15:44:24;12.40;;;4.63;;
6420;SDS011;3243;50.958;7.012;2023-10-13T15:46:52;13.73;;;5.50;;
6420;SDS011;3243;50.958;7.012;2023-10-13T15:49:22;11.02;;;5.25;;
6420;SDS011;3243;50.958;7.012;2023-10-13T15:51:50;10.55;;;5.20;;
6420;SDS011;3243;50.958;7.012;2023-10-13T15:54:17;7.63;;;4.57;;
6420;SDS011;3243;50.958;7.012;2023-10-13T15:56:45;11.18;;;5.07;;
6420;SDS011;3243;50.958;7.012;2023-10-13T15:59:14;12.82;;;5.30;;
6420;SDS011;3243;50.958;7.012;2023-10-13T16:01:41;11.50;;;4.50;;
6420;SDS011;3243;50.958;7.012;2023-10-13T16:04:08;9.63;;;5.10;;
6420;SDS011;3243;50.958;7.012;2023-10-13T16:06:46;8.80;;;4.50;;